Terminal Aerodrome Forecast
Issued by NWS

Home | Current Version | Previous Version | Text Only | Print | Product List | Glossary On
Versions: 1 2 3 4 5 6 7 8 9 10 11 12 13 14
000
FTAK31 PAJN 261121
TAFASI
TAF
PASI 261121Z 2612/2712 06006KT P6SM VCSH SCT050 OVC080
     FM261500 08010KT P6SM VCSH SCT030 OVC050
     FM262000 12012KT P6SM -RA SCT030 OVC050
     FM270300 16009KT 6SM -RA BR OVC015
     FM270700 16012G19KT P6SM -RA OVC015=

USA.gov is the U.S. government's official web portal to all federal, state and local government web resources and services.